sensor_id;sensor_type;location;lat;lon;timestamp;pressure;altitude;pressure_sealevel;temperature;humidity
75317;BME280;63913;51.492;10.368;2023-07-08T00:00:19;98782.38;;;20.85;41.14
75317;BME280;63913;51.492;10.368;2023-07-08T00:02:49;98781.53;;;20.85;41.43
75317;BME280;63913;51.492;10.368;2023-07-08T00:05:16;98785.88;;;20.84;41.45
75317;BME280;63913;51.492;10.368;2023-07-08T00:07:43;98777.25;;;20.79;42.69
75317;BME280;63913;51.492;10.368;2023-07-08T00:10:28;98779.13;;;20.71;42.77
75317;BME280;63913;51.492;10.368;2023-07-08T00:12:55;98775.75;;;20.63;43.38
75317;BME280;63913;51.492;10.368;2023-07-08T00:15:24;98767.16;;;20.53;42.97
75317;BME280;63913;51.492;10.368;2023-07-08T00:17:50;98769.78;;;20.53;43.18
75317;BME280;63913;51.492;10.368;2023-07-08T00:20:26;98769.88;;;20.44;43.70
75317;BME280;63913;51.492;10.368;2023-07-08T00:22:55;98769.94;;;20.43;43.24
75317;BME280;63913;51.492;10.368;2023-07-08T00:25:20;98761.25;;;20.41;43.28
75317;BME280;63913;51.492;10.368;2023-07-08T00:27:46;98764.78;;;20.35;43.31
75317;BME280;63913;51.492;10.368;2023-07-08T00:30:24;98760.47;;;20.28;43.93
75317;BME280;63913;51.492;10.368;2023-07-08T00:32:51;98757.94;;;20.24;43.65
75317;BME280;63913;51.492;10.368;2023-07-08T00:35:20;98757.91;;;20.27;42.19
75317;BME280;63913;51.492;10.368;2023-07-08T00:37:46;98763.06;;;20.31;42.92
75317;BME280;63913;51.492;10.368;2023-07-08T00:40:15;98766.56;;;20.35;43.00
75317;BME280;63913;51.492;10.368;2023-07-08T00:42:42;98756.94;;;20.35;43.09
75317;BME280;63913;51.492;10.368;2023-07-08T00:47:42;98765.72;;;20.28;44.10
75317;BME280;63913;51.492;10.368;2023-07-08T00:50:08;98764.91;;;20.25;43.53
75317;BME280;63913;51.492;10.368;2023-07-08T00:52:36;98768.38;;;20.25;43.67
75317;BME280;63913;51.492;10.368;2023-07-08T00:55:06;98762.28;;;20.26;43.45
75317;BME280;63913;51.492;10.368;2023-07-08T00:57:35;98764.91;;;20.25;43.56
75317;BME280;63913;51.492;10.368;2023-07-08T01:00:04;98762.31;;;20.22;43.65
75317;BME280;63913;51.492;10.368;2023-07-08T01:02:34;98763.19;;;20.20;43.72
75317;BME280;63913;51.492;10.368;2023-07-08T01:07:26;98763.25;;;20.16;43.55
75317;BME280;63913;51.492;10.368;2023-07-08T01:10:04;98762.38;;;20.17;43.90
75317;BME280;63913;51.492;10.368;2023-07-08T01:12:34;98758.94;;;20.13;44.14
75317;BME280;63913;51.492;10.368;2023-07-08T01:15:01;98751.09;;;20.13;44.01
75317;BME280;63913;51.492;10.368;2023-07-08T01:17:27;98751.97;;;20.11;44.11
75317;BME280;63913;51.492;10.368;2023-07-08T01:19:58;98747.69;;;20.08;44.18
75317;BME280;63913;51.492;10.368;2023-07-08T01:22:24;98754.66;;;20.08;44.46
75317;BME280;63913;51.492;10.368;2023-07-08T01:24:49;98749.34;;;20.12;44.42
75317;BME280;63913;51.492;10.368;2023-07-08T01:27:17;98748.56;;;20.09;45.00
75317;BME280;63913;51.492;10.368;2023-07-08T01:29:44;98745.09;;;20.05;44.49
75317;BME280;63913;51.492;10.368;2023-07-08T01:32:13;98742.56;;;19.99;44.79
75317;BME280;63913;51.492;10.368;2023-07-08T01:34:44;98733.09;;;19.92;45.42
75317;BME280;63913;51.492;10.368;2023-07-08T01:37:36;98736.66;;;19.85;46.33
75317;BME280;63913;51.492;10.368;2023-07-08T01:42:46;98734.16;;;19.73;46.41
75317;BME280;63913;51.492;10.368;2023-07-08T01:45:17;98735.09;;;19.66;46.48
75317;BME280;63913;51.492;10.368;2023-07-08T01:48:08;98728.22;;;19.59;46.73
75317;BME280;63913;51.492;10.368;2023-07-08T01:50:33;98726.50;;;19.56;46.46
75317;BME280;63913;51.492;10.368;2023-07-08T01:53:02;98716.13;;;19.50;46.71
75317;BME280;63913;51.492;10.368;2023-07-08T01:55:30;98717.06;;;19.40;47.22
75317;BME280;63913;51.492;10.368;2023-07-08T01:57:56;98722.28;;;19.38;47.42
75317;BME280;63913;51.492;10.368;2023-07-08T02:00:22;98717.97;;;19.37;46.88
75317;BME280;63913;51.492;10.368;2023-07-08T02:02:49;98719.78;;;19.29;48.14
75317;BME280;63913;51.492;10.368;2023-07-08T02:05:15;98709.38;;;19.25;47.60
75317;BME280;63913;51.492;10.368;2023-07-08T02:07:41;98716.31;;;19.27;47.21
75317;BME280;63913;51.492;10.368;2023-07-08T02:10:07;98709.28;;;19.37;46.21
75317;BME280;63913;51.492;10.368;2023-07-08T02:12:35;98704.81;;;19.47;46.75
75317;BME280;63913;51.492;10.368;2023-07-08T02:15:03;98705.69;;;19.50;46.79
75317;BME280;63913;51.492;10.368;2023-07-08T02:17:28;98697.88;;;19.50;46.22
75317;BME280;63913;51.492;10.368;2023-07-08T02:19:55;98697.81;;;19.56;46.27
75317;BME280;63913;51.492;10.368;2023-07-08T02:22:20;98700.41;;;19.59;45.30
75317;BME280;63913;51.492;10.368;2023-07-08T02:24:46;98705.53;;;19.64;45.63
75317;BME280;63913;51.492;10.368;2023-07-08T02:27:11;98716.78;;;19.70;45.51
75317;BME280;63913;51.492;10.368;2023-07-08T02:29:37;98703.72;;;19.73;45.53
75317;BME280;63913;51.492;10.368;2023-07-08T02:32:04;98704.59;;;19.72;45.69
75317;BME280;63913;51.492;10.368;2023-07-08T02:34:29;98697.63;;;19.73;46.04
75317;BME280;63913;51.492;10.368;2023-07-08T02:36:57;98695.03;;;19.71;44.64
75317;BME280;63913;51.492;10.368;2023-07-08T02:39:23;98719.38;;;19.73;45.31
75317;BME280;63913;51.492;10.368;2023-07-08T02:41:48;98708.03;;;19.76;44.55
75317;BME280;63913;51.492;10.368;2023-07-08T02:44:14;98706.22;;;19.83;44.63
75317;BME280;63913;51.492;10.368;2023-07-08T02:46:39;98700.09;;;19.85;44.14
75317;BME280;63913;51.492;10.368;2023-07-08T02:49:05;98701.78;;;19.88;44.07
75317;BME280;63913;51.492;10.368;2023-07-08T02:51:31;98703.53;;;19.90;44.22
75317;BME280;63913;51.492;10.368;2023-07-08T02:53:56;98704.41;;;19.89;44.25
75317;BME280;63913;51.492;10.368;2023-07-08T02:56:22;98706.25;;;19.79;45.06
75317;BME280;63913;51.492;10.368;2023-07-08T02:58:54;98704.56;;;19.75;45.08
75317;BME280;63913;51.492;10.368;2023-07-08T03:01:20;98707.97;;;19.79;44.64
75317;BME280;63913;51.492;10.368;2023-07-08T03:03:47;98708.03;;;19.77;44.17
75317;BME280;63913;51.492;10.368;2023-07-08T03:06:14;98703.69;;;19.75;44.82
75317;BME280;63913;51.492;10.368;2023-07-08T03:08:39;98696.78;;;19.71;44.86
75317;BME280;63913;51.492;10.368;2023-07-08T03:11:06;98700.22;;;19.76;45.13
75317;BME280;63913;51.492;10.368;2023-07-08T03:13:33;98707.19;;;19.72;45.44
75317;BME280;63913;51.492;10.368;2023-07-08T03:16:00;98703.72;;;19.72;45.09
75317;BME280;63913;51.492;10.368;2023-07-08T03:18:26;98707.28;;;19.65;46.24
75317;BME280;63913;51.492;10.368;2023-07-08T03:20:57;98709.00;;;19.67;45.94
75317;BME280;63913;51.492;10.368;2023-07-08T03:23:24;98709.84;;;19.69;45.79
75317;BME280;63913;51.492;10.368;2023-07-08T03:25:52;98701.16;;;19.69;44.90
75317;BME280;63913;51.492;10.368;2023-07-08T03:28:19;98710.69;;;19.71;45.01
75317;BME280;63913;51.492;10.368;2023-07-08T03:30:51;98715.00;;;19.74;44.62
75317;BME280;63913;51.492;10.368;2023-07-08T03:33:16;98707.19;;;19.71;44.68
75317;BME280;63913;51.492;10.368;2023-07-08T03:35:42;98710.66;;;19.73;45.12
75317;BME280;63913;51.492;10.368;2023-07-08T03:38:07;98708.16;;;19.65;44.56
75317;BME280;63913;51.492;10.368;2023-07-08T03:40:34;98712.41;;;19.71;45.03
75317;BME280;63913;51.492;10.368;2023-07-08T03:43:01;98711.53;;;19.73;45.06
75317;BME280;63913;51.492;10.368;2023-07-08T03:45:28;98715.03;;;19.71;45.32
75317;BME280;63913;51.492;10.368;2023-07-08T03:47:55;98713.38;;;19.62;46.21
75317;BME280;63913;51.492;10.368;2023-07-08T03:50:22;98718.66;;;19.58;46.16
75317;BME280;63913;51.492;10.368;2023-07-08T03:52:51;98715.25;;;19.51;46.39
75317;BME280;63913;51.492;10.368;2023-07-08T03:55:17;98704.81;;;19.51;46.32
75317;BME280;63913;51.492;10.368;2023-07-08T03:57:46;98709.16;;;19.46;47.29
75317;BME280;63913;51.492;10.368;2023-07-08T04:00:12;98706.56;;;19.46;45.90
75317;BME280;63913;51.492;10.368;2023-07-08T04:02:42;98725.69;;;19.50;46.47
75317;BME280;63913;51.492;10.368;2023-07-08T04:05:21;98719.66;;;19.44;46.59
75317;BME280;63913;51.492;10.368;2023-07-08T04:07:48;98717.84;;;19.47;46.25
75317;BME280;63913;51.492;10.368;2023-07-08T04:10:15;98717.88;;;19.51;46.34
75317;BME280;63913;51.492;10.368;2023-07-08T04:12:43;98720.47;;;19.51;46.50
75317;BME280;63913;51.492;10.368;2023-07-08T04:15:10;98712.69;;;19.45;46.90
75317;BME280;63913;51.492;10.368;2023-07-08T04:17:41;98716.13;;;19.49;46.61
75317;BME280;63913;51.492;10.368;2023-07-08T04:20:09;98709.19;;;19.49;46.79
75317;BME280;63913;51.492;10.368;2023-07-08T04:22:39;98722.16;;;19.55;46.56
75317;BME280;63913;51.492;10.368;2023-07-08T04:25:04;98721.28;;;19.56;46.87
75317;BME280;63913;51.492;10.368;2023-07-08T04:27:30;98717.88;;;19.51;47.33
75317;BME280;63913;51.492;10.368;2023-07-08T04:29:55;98725.63;;;19.54;47.03
75317;BME280;63913;51.492;10.368;2023-07-08T04:32:20;98721.34;;;19.49;47.32
75317;BME280;63913;51.492;10.368;2023-07-08T04:34:50;98723.13;;;19.42;48.10
75317;BME280;63913;51.492;10.368;2023-07-08T04:37:15;98727.47;;;19.41;47.83
75317;BME280;63913;51.492;10.368;2023-07-08T04:39:41;98737.03;;;19.41;48.29
75317;BME280;63913;51.492;10.368;2023-07-08T04:42:06;98725.81;;;19.36;49.45
75317;BME280;63913;51.492;10.368;2023-07-08T04:44:33;98726.69;;;19.33;48.56
75317;BME280;63913;51.492;10.368;2023-07-08T04:46:58;98725.81;;;19.36;48.69
75317;BME280;63913;51.492;10.368;2023-07-08T04:49:24;98723.19;;;19.36;48.64
75317;BME280;63913;51.492;10.368;2023-07-08T04:51:53;98723.13;;;19.42;48.23
75317;BME280;63913;51.492;10.368;2023-07-08T04:54:18;98729.16;;;19.53;47.59
75317;BME280;63913;51.492;10.368;2023-07-08T04:56:47;98739.53;;;19.58;48.01
75317;BME280;63913;51.492;10.368;2023-07-08T04:59:15;98719.47;;;19.63;47.87
75317;BME280;63913;51.492;10.368;2023-07-08T05:01:41;98715.97;;;19.64;47.76
75317;BME280;63913;51.492;10.368;2023-07-08T05:04:12;98722.84;;;19.71;47.79
75317;BME280;63913;51.492;10.368;2023-07-08T05:06:38;98712.47;;;19.69;48.29
75317;BME280;63913;51.492;10.368;2023-07-08T05:09:04;98721.94;;;19.76;47.89
75317;BME280;63913;51.492;10.368;2023-07-08T05:11:31;98713.19;;;19.80;47.52
75317;BME280;63913;51.492;10.368;2023-07-08T05:13:57;98712.28;;;19.85;47.23
75317;BME280;63913;51.492;10.368;2023-07-08T05:16:23;98717.44;;;19.89;47.04
75317;BME280;63913;51.492;10.368;2023-07-08T05:18:48;98722.66;;;19.92;47.60
75317;BME280;63913;51.492;10.368;2023-07-08T05:21:14;98722.56;;;19.97;47.34
75317;BME280;63913;51.492;10.368;2023-07-08T05:23:39;98733.84;;;20.00;47.02
75317;BME280;63913;51.492;10.368;2023-07-08T05:26:06;98724.22;;;20.05;46.56
75317;BME280;63913;51.492;10.368;2023-07-08T05:28:32;98723.25;;;20.11;46.70
75317;BME280;63913;51.492;10.368;2023-07-08T05:30:58;98714.53;;;20.13;47.26
75317;BME280;63913;51.492;10.368;2023-07-08T05:33:24;98715.38;;;20.15;47.08
75317;BME280;63913;51.492;10.368;2023-07-08T05:35:51;98718.81;;;20.19;46.47
75317;BME280;63913;51.492;10.368;2023-07-08T05:38:16;98722.19;;;20.27;46.61
75317;BME280;63913;51.492;10.368;2023-07-08T05:40:42;98721.25;;;20.33;46.21
75317;BME280;63913;51.492;10.368;2023-07-08T05:43:08;98721.22;;;20.37;45.85
75317;BME280;63913;51.492;10.368;2023-07-08T05:45:33;98722.09;;;20.38;46.19
75317;BME280;63913;51.492;10.368;2023-07-08T05:48:01;98721.13;;;20.43;45.89
75317;BME280;63913;51.492;10.368;2023-07-08T05:50:27;98721.09;;;20.46;45.84
75317;BME280;63913;51.492;10.368;2023-07-08T05:52:52;98725.44;;;20.49;45.96
75317;BME280;63913;51.492;10.368;2023-07-08T05:55:17;98722.75;;;20.53;45.91
75317;BME280;63913;51.492;10.368;2023-07-08T05:57:43;98720.09;;;20.56;45.46
75317;BME280;63913;51.492;10.368;2023-07-08T06:00:09;98717.41;;;20.61;45.22
75317;BME280;63913;51.492;10.368;2023-07-08T06:02:38;98722.63;;;20.63;45.58
75317;BME280;63913;51.492;10.368;2023-07-08T06:05:03;98710.34;;;20.68;45.30
75317;BME280;63913;51.492;10.368;2023-07-08T06:07:29;98711.25;;;20.67;45.33
75317;BME280;63913;51.492;10.368;2023-07-08T06:09:54;98717.28;;;20.70;45.03
75317;BME280;63913;51.492;10.368;2023-07-08T06:12:22;98712.00;;;20.73;45.03
75317;BME280;63913;51.492;10.368;2023-07-08T06:14:47;98719.78;;;20.78;45.34
75317;BME280;63913;51.492;10.368;2023-07-08T06:17:12;98727.56;;;20.81;44.59
75317;BME280;63913;51.492;10.368;2023-07-08T06:19:38;98719.75;;;20.81;45.36
75317;BME280;63913;51.492;10.368;2023-07-08T06:22:04;98721.44;;;20.83;45.03
75317;BME280;63913;51.492;10.368;2023-07-08T06:24:29;98720.53;;;20.86;44.56
75317;BME280;63913;51.492;10.368;2023-07-08T06:26:54;98720.47;;;20.89;45.24
75317;BME280;63913;51.492;10.368;2023-07-08T06:29:20;98714.31;;;20.93;44.64
75317;BME280;63913;51.492;10.368;2023-07-08T06:31:45;98719.50;;;20.96;44.89
75317;BME280;63913;51.492;10.368;2023-07-08T06:34:10;98718.53;;;21.00;45.26
75317;BME280;63913;51.492;10.368;2023-07-08T06:36:36;98718.50;;;21.03;45.17
75317;BME280;63913;51.492;10.368;2023-07-08T06:39:01;98716.66;;;21.08;45.36
75317;BME280;63913;51.492;10.368;2023-07-08T06:41:27;98713.16;;;21.09;45.29
75317;BME280;63913;51.492;10.368;2023-07-08T06:43:52;98715.72;;;21.14;44.34
75317;BME280;63913;51.492;10.368;2023-07-08T06:46:22;98717.41;;;21.19;44.37
75317;BME280;63913;51.492;10.368;2023-07-08T06:48:47;98725.19;;;21.24;44.77
75317;BME280;63913;51.492;10.368;2023-07-08T06:51:13;98717.34;;;21.24;45.20
75317;BME280;63913;51.492;10.368;2023-07-08T06:53:38;98720.72;;;21.29;45.52
75317;BME280;63913;51.492;10.368;2023-07-08T06:56:04;98719.84;;;21.30;45.63
75317;BME280;63913;51.492;10.368;2023-07-08T06:58:31;98717.13;;;21.35;45.15
75317;BME280;63913;51.492;10.368;2023-07-08T07:00:56;98717.97;;;21.37;45.47
75317;BME280;63913;51.492;10.368;2023-07-08T07:03:23;98715.34;;;21.38;44.75
75317;BME280;63913;51.492;10.368;2023-07-08T07:05:49;98709.16;;;21.41;45.60
75317;BME280;63913;51.492;10.368;2023-07-08T07:08:14;98707.38;;;21.44;45.09
75317;BME280;63913;51.492;10.368;2023-07-08T07:10:39;98720.34;;;21.50;45.20
75317;BME280;63913;51.492;10.368;2023-07-08T07:13:05;98714.25;;;21.50;45.69
75317;BME280;63913;51.492;10.368;2023-07-08T07:15:30;98718.41;;;21.61;45.02
75317;BME280;63913;51.492;10.368;2023-07-08T07:17:57;98726.13;;;21.67;45.31
75317;BME280;63913;51.492;10.368;2023-07-08T07:20:23;98719.09;;;21.71;44.91
75317;BME280;63913;51.492;10.368;2023-07-08T07:22:48;98723.19;;;21.84;45.11
75317;BME280;63913;51.492;10.368;2023-07-08T07:25:14;98720.50;;;21.89;45.23
75317;BME280;63913;51.492;10.368;2023-07-08T07:27:41;98716.94;;;21.91;44.44
75317;BME280;63913;51.492;10.368;2023-07-08T07:30:06;98721.16;;;22.01;45.08
75317;BME280;63913;51.492;10.368;2023-07-08T07:32:32;98722.03;;;22.00;44.86
75317;BME280;63913;51.492;10.368;2023-07-08T07:34:59;98732.47;;;22.03;44.78
75317;BME280;63913;51.492;10.368;2023-07-08T07:37:26;98725.19;;;22.18;44.54
75317;BME280;63913;51.492;10.368;2023-07-08T07:39:51;98733.88;;;22.20;44.38
75317;BME280;63913;51.492;10.368;2023-07-08T07:42:18;98732.88;;;22.25;44.70
75317;BME280;63913;51.492;10.368;2023-07-08T07:44:45;98731.06;;;22.29;44.80
75317;BME280;63913;51.492;10.368;2023-07-08T07:47:10;98732.81;;;22.28;45.75
75317;BME280;63913;51.492;10.368;2023-07-08T07:49:37;98732.75;;;22.31;44.55
75317;BME280;63913;51.492;10.368;2023-07-08T07:52:05;98739.75;;;22.31;44.64
75317;BME280;63913;51.492;10.368;2023-07-08T07:54:31;98737.03;;;22.35;44.18
75317;BME280;63913;51.492;10.368;2023-07-08T07:56:56;98737.72;;;22.45;44.45
75317;BME280;63913;51.492;10.368;2023-07-08T07:59:22;98745.28;;;22.57;45.13
75317;BME280;63913;51.492;10.368;2023-07-08T08:01:47;98730.31;;;22.62;43.44
75317;BME280;63913;51.492;10.368;2023-07-08T08:04:13;98745.81;;;22.74;43.33
75317;BME280;63913;51.492;10.368;2023-07-08T08:06:38;98742.81;;;22.91;43.92
75317;BME280;63913;51.492;10.368;2023-07-08T08:09:04;98737.53;;;22.93;43.36
75317;BME280;63913;51.492;10.368;2023-07-08T08:11:30;98746.94;;;23.01;44.90
75317;BME280;63913;51.492;10.368;2023-07-08T08:13:56;98755.59;;;23.05;44.20
75317;BME280;63913;51.492;10.368;2023-07-08T08:16:22;98751.97;;;23.10;43.68
75317;BME280;63913;51.492;10.368;2023-07-08T08:18:48;98751.81;;;23.16;43.61
75317;BME280;63913;51.492;10.368;2023-07-08T08:21:13;98746.41;;;23.23;43.56
75317;BME280;63913;51.492;10.368;2023-07-08T08:23:39;98755.81;;;23.31;43.06
75317;BME280;63913;51.492;10.368;2023-07-08T08:26:05;98753.72;;;23.45;42.73
75317;BME280;63913;51.492;10.368;2023-07-08T08:28:30;98757.00;;;23.55;43.05
75317;BME280;63913;51.492;10.368;2023-07-08T08:30:56;98748.81;;;23.67;41.83
75317;BME280;63913;51.492;10.368;2023-07-08T08:33:21;98748.19;;;23.90;41.75
75317;BME280;63913;51.492;10.368;2023-07-08T08:35:46;98746.00;;;24.06;41.78
75317;BME280;63913;51.492;10.368;2023-07-08T08:38:12;98741.94;;;24.26;40.85
75317;BME280;63913;51.492;10.368;2023-07-08T08:40:40;98747.38;;;24.50;41.22
75317;BME280;63913;51.492;10.368;2023-07-08T08:43:10;98742.09;;;24.79;39.88
75317;BME280;63913;51.492;10.368;2023-07-08T08:45:46;98742.88;;;25.11;40.06
75317;BME280;63913;51.492;10.368;2023-07-08T08:48:15;98745.91;;;25.51;38.41
75317;BME280;63913;51.492;10.368;2023-07-08T08:50:57;98743.59;;;25.68;39.19
75317;BME280;63913;51.492;10.368;2023-07-08T08:53:25;98748.91;;;25.92;38.18
75317;BME280;63913;51.492;10.368;2023-07-08T08:55:59;98734.69;;;25.96;38.19
75317;BME280;63913;51.492;10.368;2023-07-08T08:58:38;98735.41;;;26.01;37.99
75317;BME280;63913;51.492;10.368;2023-07-08T09:01:12;98737.44;;;26.17;35.66
75317;BME280;63913;51.492;10.368;2023-07-08T09:03:53;98734.97;;;26.36;36.92
75317;BME280;63913;51.492;10.368;2023-07-08T09:06:24;98735.56;;;26.44;35.92
75317;BME280;63913;51.492;10.368;2023-07-08T09:08:51;98731.59;;;26.56;36.31
75317;BME280;63913;51.492;10.368;2023-07-08T09:14:29;98727.84;;;27.07;35.18
75317;BME280;63913;51.492;10.368;2023-07-08T09:17:16;98731.59;;;27.01;36.46
75317;BME280;63913;51.492;10.368;2023-07-08T09:25:01;98735.41;;;26.94;33.54
75317;BME280;63913;51.492;10.368;2023-07-08T09:27:28;98736.72;;;26.82;36.37
75317;BME280;63913;51.492;10.368;2023-07-08T09:29:54;98745.34;;;26.64;36.19
75317;BME280;63913;51.492;10.368;2023-07-08T09:32:24;98742.09;;;26.57;37.26
75317;BME280;63913;51.492;10.368;2023-07-08T09:37:23;98745.38;;;26.41;39.56
75317;BME280;63913;51.492;10.368;2023-07-08T09:39:49;98747.69;;;26.25;38.31
75317;BME280;63913;51.492;10.368;2023-07-08T09:42:16;98744.34;;;26.20;38.33
75317;BME280;63913;51.492;10.368;2023-07-08T09:44:44;98755.88;;;26.17;38.74
75317;BME280;63913;51.492;10.368;2023-07-08T09:47:26;98760.44;;;26.12;38.10
75317;BME280;63913;51.492;10.368;2023-07-08T09:49:57;98768.88;;;25.99;38.88
75317;BME280;63913;51.492;10.368;2023-07-08T09:52:23;98763.91;;;25.90;39.41
75317;BME280;63913;51.492;10.368;2023-07-08T09:54:49;98762.81;;;25.95;39.31
75317;BME280;63913;51.492;10.368;2023-07-08T09:59:55;98764.72;;;25.92;41.01
75317;BME280;63913;51.492;10.368;2023-07-08T10:02:28;98762.03;;;25.93;38.69
75317;BME280;63913;51.492;10.368;2023-07-08T10:04:55;98763.69;;;25.96;39.33
75317;BME280;63913;51.492;10.368;2023-07-08T10:07:21;98764.94;;;26.10;36.85
75317;BME280;63913;51.492;10.368;2023-07-08T10:09:53;98758.72;;;26.36;37.44
75317;BME280;63913;51.492;10.368;2023-07-08T10:12:22;98759.94;;;26.51;35.42
75317;BME280;63913;51.492;10.368;2023-07-08T10:14:52;98745.50;;;26.59;34.43
75317;BME280;63913;51.492;10.368;2023-07-08T10:17:21;98752.22;;;26.68;34.96
75317;BME280;63913;51.492;10.368;2023-07-08T10:19:47;98741.63;;;26.70;34.08
75317;BME280;63913;51.492;10.368;2023-07-08T10:30:30;98742.72;;;26.64;29.61
75317;BME280;63913;51.492;10.368;2023-07-08T10:44:56;98725.69;;;27.58;29.08
75317;BME280;63913;51.492;10.368;2023-07-08T10:47:35;98728.53;;;27.74;29.79
75317;BME280;63913;51.492;10.368;2023-07-08T10:58:34;98725.34;;;28.27;27.94
75317;BME280;63913;51.492;10.368;2023-07-08T11:01:18;98714.03;;;28.42;29.36
75317;BME280;63913;51.492;10.368;2023-07-08T11:06:25;98706.31;;;28.56;28.10
75317;BME280;63913;51.492;10.368;2023-07-08T11:09:00;98710.00;;;28.71;29.35
75317;BME280;63913;51.492;10.368;2023-07-08T11:11:34;98702.31;;;28.85;28.41
75317;BME280;63913;51.492;10.368;2023-07-08T11:14:33;98713.22;;;28.96;28.45
75317;BME280;63913;51.492;10.368;2023-07-08T11:17:09;98718.16;;;29.04;27.43
75317;BME280;63913;51.492;10.368;2023-07-08T11:19:49;98712.47;;;29.11;27.52
75317;BME280;63913;51.492;10.368;2023-07-08T11:22:18;98703.38;;;29.17;27.54
75317;BME280;63913;51.492;10.368;2023-07-08T11:24:46;98709.91;;;29.27;28.61
75317;BME280;63913;51.492;10.368;2023-07-08T11:27:25;98714.50;;;29.42;27.48
75317;BME280;63913;51.492;10.368;2023-07-08T11:30:04;98712.41;;;29.49;26.91
75317;BME280;63913;51.492;10.368;2023-07-08T11:32:32;98712.94;;;29.55;28.37
75317;BME280;63913;51.492;10.368;2023-07-08T11:35:00;98710.13;;;29.58;25.81
75317;BME280;63913;51.492;10.368;2023-07-08T11:37:28;98701.69;;;29.68;26.30
75317;BME280;63913;51.492;10.368;2023-07-08T11:39:58;98699.13;;;29.83;24.90
75317;BME280;63913;51.492;10.368;2023-07-08T11:42:44;98709.16;;;29.94;24.71
75317;BME280;63913;51.492;10.368;2023-07-08T11:47:48;98703.31;;;30.05;23.33
75317;BME280;63913;51.492;10.368;2023-07-08T11:52:55;98691.94;;;30.18;23.21
75317;BME280;63913;51.492;10.368;2023-07-08T11:55:38;98694.88;;;30.29;25.75
75317;BME280;63913;51.492;10.368;2023-07-08T11:58:15;98690.88;;;30.38;23.54
75317;BME280;63913;51.492;10.368;2023-07-08T12:00:52;98681.53;;;30.47;22.99
75317;BME280;63913;51.492;10.368;2023-07-08T12:03:21;98684.38;;;30.59;23.58
75317;BME280;63913;51.492;10.368;2023-07-08T12:05:47;98685.84;;;30.65;25.04
75317;BME280;63913;51.492;10.368;2023-07-08T12:08:18;98686.88;;;30.78;24.05
75317;BME280;63913;51.492;10.368;2023-07-08T12:10:50;98671.59;;;30.82;21.48
75317;BME280;63913;51.492;10.368;2023-07-08T12:13:21;98682.41;;;30.94;21.90
75317;BME280;63913;51.492;10.368;2023-07-08T12:15:48;98674.50;;;31.08;23.04
75317;BME280;63913;51.492;10.368;2023-07-08T12:18:22;98673.97;;;31.18;22.59
75317;BME280;63913;51.492;10.368;2023-07-08T12:20:54;98667.63;;;31.20;20.42
75317;BME280;63913;51.492;10.368;2023-07-08T12:23:22;98675.25;;;31.26;21.67
75317;BME280;63913;51.492;10.368;2023-07-08T12:25:48;98661.59;;;31.32;21.36
75317;BME280;63913;51.492;10.368;2023-07-08T12:28:15;98670.03;;;31.39;21.43
75317;BME280;63913;51.492;10.368;2023-07-08T12:30:42;98667.38;;;31.39;20.68
75317;BME280;63913;51.492;10.368;2023-07-08T12:33:11;98666.97;;;31.31;20.14
75317;BME280;63913;51.492;10.368;2023-07-08T12:35:40;98664.84;;;31.37;20.32
75317;BME280;63913;51.492;10.368;2023-07-08T12:38:17;98662.84;;;31.41;20.74
75317;BME280;63913;51.492;10.368;2023-07-08T12:40:44;98656.97;;;31.50;20.98
75317;BME280;63913;51.492;10.368;2023-07-08T12:43:10;98658.31;;;31.57;20.65
75317;BME280;63913;51.492;10.368;2023-07-08T12:45:36;98657.09;;;31.63;21.04
75317;BME280;63913;51.492;10.368;2023-07-08T12:48:02;98656.59;;;31.56;21.25
75317;BME280;63913;51.492;10.368;2023-07-08T12:50:27;98652.97;;;31.43;21.29
75317;BME280;63913;51.492;10.368;2023-07-08T12:52:53;98652.97;;;31.43;21.36
75317;BME280;63913;51.492;10.368;2023-07-08T12:55:19;98649.09;;;31.48;20.53
75317;BME280;63913;51.492;10.368;2023-07-08T12:57:47;98645.97;;;31.56;22.20
75317;BME280;63913;51.492;10.368;2023-07-08T13:00:21;98647.59;;;31.59;21.85
75317;BME280;63913;51.492;10.368;2023-07-08T13:02:57;98647.84;;;31.54;21.28
75317;BME280;63913;51.492;10.368;2023-07-08T13:05:23;98645.53;;;31.64;22.76
75317;BME280;63913;51.492;10.368;2023-07-08T13:07:51;98641.53;;;31.71;22.21
75317;BME280;63913;51.492;10.368;2023-07-08T13:10:23;98638.53;;;31.77;21.73
75317;BME280;63913;51.492;10.368;2023-07-08T13:12:54;98634.06;;;31.92;21.70
75317;BME280;63913;51.492;10.368;2023-07-08T13:15:30;98636.34;;;31.83;21.90
75317;BME280;63913;51.492;10.368;2023-07-08T13:17:58;98639.75;;;31.86;22.23
75317;BME280;63913;51.492;10.368;2023-07-08T13:20:24;98635.66;;;31.80;21.74
75317;BME280;63913;51.492;10.368;2023-07-08T13:22:57;98634.31;;;31.87;21.73
75317;BME280;63913;51.492;10.368;2023-07-08T13:25:30;98630.53;;;31.77;21.76
75317;BME280;63913;51.492;10.368;2023-07-08T13:27:59;98625.41;;;31.88;22.98
75317;BME280;63913;51.492;10.368;2023-07-08T13:30:27;98630.81;;;32.01;22.26
75317;BME280;63913;51.492;10.368;2023-07-08T13:32:56;98620.81;;;32.04;21.51
75317;BME280;63913;51.492;10.368;2023-07-08T13:35:25;98620.63;;;32.07;21.17
75317;BME280;63913;51.492;10.368;2023-07-08T13:37:52;98624.25;;;32.06;20.96
75317;BME280;63913;51.492;10.368;2023-07-08T13:40:18;98624.72;;;32.13;21.13
75317;BME280;63913;51.492;10.368;2023-07-08T13:42:48;98624.56;;;32.16;22.19
75317;BME280;63913;51.492;10.368;2023-07-08T13:45:20;98619.78;;;32.21;21.45
75317;BME280;63913;51.492;10.368;2023-07-08T13:47:58;98622.72;;;32.31;22.73
75317;BME280;63913;51.492;10.368;2023-07-08T13:50:26;98617.66;;;32.40;23.20
75317;BME280;63913;51.492;10.368;2023-07-08T13:52:55;98622.41;;;32.49;22.17